createdAt,value
2018-12-01T00:00:45.937Z,100831.35
2018-12-01T00:03:12.497Z,100837.88
2018-12-01T00:05:39.003Z,100829.80
2018-12-01T00:08:05.581Z,100832.27
2018-12-01T00:10:32.081Z,100830.98
2018-12-01T00:12:58.631Z,100833.12
2018-12-01T00:15:27.140Z,100839.38
2018-12-01T00:17:53.989Z,100839.95
2018-12-01T00:20:21.893Z,100835.89
2018-12-01T00:22:48.359Z,100842.95
2018-12-01T00:25:14.894Z,100837.05
2018-12-01T00:27:41.392Z,100838.94
2018-12-01T00:30:11.905Z,100847.62
2018-12-01T00:32:38.509Z,100846.55
2018-12-01T00:35:06.181Z,100845.19
2018-12-01T00:37:32.653Z,100843.06
2018-12-01T00:39:59.124Z,100844.72
2018-12-01T00:42:25.626Z,100843.10
2018-12-01T00:44:52.294Z,100845.02
2018-12-01T00:47:18.701Z,100848.57
2018-12-01T00:49:45.249Z,100851.81
2018-12-01T00:52:11.770Z,100856.91
2018-12-01T00:54:38.321Z,100855.94
2018-12-01T00:57:04.848Z,100851.88
2018-12-01T00:59:31.397Z,100841.11
2018-12-01T01:01:57.909Z,100850.33
2018-12-01T01:04:24.477Z,100851.14
2018-12-01T01:06:51.000Z,100843.58
2018-12-01T01:09:17.524Z,100838.78
2018-12-01T01:11:44.053Z,100839.33
2018-12-01T01:14:10.609Z,100845.58
2018-12-01T01:16:37.133Z,100850.67
2018-12-01T01:19:03.816Z,100842.38
2018-12-01T01:21:30.289Z,100846.99
2018-12-01T01:23:56.821Z,100848.34
2018-12-01T01:26:23.380Z,100852.39
2018-12-01T01:28:49.885Z,100852.12
2018-12-01T01:31:16.369Z,100844.02
2018-12-01T01:33:42.864Z,100838.92
2018-12-01T01:36:09.433Z,100842.20
2018-12-01T01:38:35.935Z,100837.58
2018-12-01T01:41:02.498Z,100840.28
2018-12-01T01:43:29.021Z,100844.39
2018-12-01T01:45:55.561Z,100837.64
2018-12-01T01:48:22.085Z,100838.45
2018-12-01T01:50:48.634Z,100837.37
2018-12-01T01:53:15.137Z,100837.11
2018-12-01T01:55:41.602Z,100835.75
2018-12-01T01:58:08.117Z,100828.27
2018-12-01T02:00:34.685Z,100828.77
2018-12-01T02:03:01.181Z,100830.42
2018-12-01T02:05:27.733Z,100821.81
2018-12-01T02:07:54.251Z,100827.76
2018-12-01T02:10:20.857Z,100829.11
2018-12-01T02:12:47.320Z,100820.50
2018-12-01T02:15:13.788Z,100824.55
2018-12-01T02:17:40.321Z,100826.20
2018-12-01T02:20:10.873Z,100828.12
2018-12-01T02:22:37.387Z,100831.60
2018-12-01T02:25:04.757Z,100820.87
2018-12-01T02:27:31.273Z,100815.23
2018-12-01T02:29:57.774Z,100821.98
2018-12-01T02:32:24.235Z,100814.96
2018-12-01T02:34:50.733Z,100815.50
2018-12-01T02:37:17.197Z,100810.67
2018-12-01T02:39:43.714Z,100809.05
2018-12-01T02:42:10.261Z,100806.13
2018-12-01T02:45:03.421Z,100807.23
2018-12-01T02:47:29.972Z,100811.28
2018-12-01T02:49:56.477Z,100813.98
2018-12-01T02:52:23.012Z,100809.13
2018-12-01T02:54:49.817Z,100807.77
2018-12-01T02:57:16.277Z,100813.48
2018-12-01T02:59:42.737Z,100809.97
2018-12-01T03:02:09.249Z,100810.81
2018-12-01T03:04:35.717Z,100813.78
2018-12-01T03:07:02.253Z,100810.03
2018-12-01T03:09:28.769Z,100814.08
2018-12-01T03:11:55.293Z,100821.88
2018-12-01T03:14:21.841Z,100816.52
2018-12-01T03:16:48.357Z,100815.47
2018-12-01T03:19:14.821Z,100818.16
2018-12-01T03:21:41.317Z,100816.03
2018-12-01T03:24:07.788Z,100817.86
2018-12-01T03:26:34.294Z,100817.66
2018-12-01T03:29:00.774Z,100828.45
2018-12-01T03:31:27.257Z,100828.52
2018-12-01T03:33:53.799Z,100836.56
2018-12-01T03:36:20.345Z,100831.45
2018-12-01T03:38:46.897Z,100827.98
2018-12-01T03:41:13.437Z,100827.47
2018-12-01T03:43:39.933Z,100825.58
2018-12-01T03:46:06.400Z,100819.91
2018-12-01T03:48:32.901Z,100829.36
2018-12-01T03:50:59.365Z,100819.14
2018-12-01T03:53:25.877Z,100825.08
2018-12-01T03:55:52.417Z,100820.76
2018-12-01T03:58:18.940Z,100823.45
2018-12-01T04:00:45.404Z,100826.73
2018-12-01T04:03:11.909Z,100821.88
2018-12-01T04:05:38.365Z,100821.88
2018-12-01T04:08:04.892Z,100823.76
2018-12-01T04:10:31.433Z,100822.71
2018-12-01T04:12:57.961Z,100825.68
2018-12-01T04:15:24.852Z,100831.31
2018-12-01T04:17:51.353Z,100829.22
2018-12-01T04:20:17.861Z,100827.06
2018-12-01T04:22:44.448Z,100828.41
2018-12-01T04:25:10.959Z,100826.28
2018-12-01T04:27:37.509Z,100823.08
2018-12-01T04:30:08.245Z,100821.45
2018-12-01T04:32:34.748Z,100829.83
2018-12-01T04:35:01.277Z,100830.13
2018-12-01T04:37:27.819Z,100828.20
2018-12-01T04:39:54.334Z,100834.95
2018-12-01T04:42:20.793Z,100832.25
2018-12-01T04:44:47.321Z,100830.66
2018-12-01T04:47:13.844Z,100828.27
2018-12-01T04:49:40.364Z,100835.02
2018-12-01T04:52:06.944Z,100835.83
2018-12-01T04:54:33.436Z,100839.60
2018-12-01T04:56:59.965Z,100847.70
2018-12-01T04:59:26.404Z,100850.40
2018-12-01T05:01:52.940Z,100844.77
2018-12-01T05:04:19.405Z,100857.14
2018-12-01T05:06:45.916Z,100858.02
2018-12-01T05:09:12.469Z,100861.25
2018-12-01T05:11:38.993Z,100855.05
2018-12-01T05:14:05.540Z,100860.45
2018-12-01T05:16:32.053Z,100855.05
2018-12-01T05:18:58.644Z,100847.48
2018-12-01T05:21:25.122Z,100853.46
2018-12-01T05:23:51.676Z,100844.55
2018-12-01T05:26:18.189Z,100850.76
2018-12-01T05:28:44.765Z,100847.25
2018-12-01T05:31:11.253Z,100849.14
2018-12-01T05:33:37.715Z,100842.96
2018-12-01T05:36:04.245Z,100840.80
2018-12-01T05:38:30.797Z,100846.73
2018-12-01T05:40:57.293Z,100841.64
2018-12-01T05:43:23.733Z,100853.55
2018-12-01T05:45:50.293Z,100853.78
2018-12-01T05:48:16.806Z,100852.20
2018-12-01T05:50:43.353Z,100857.59
2018-12-01T05:53:09.873Z,100860.53
2018-12-01T06:02:22.037Z,100869.73
2018-12-01T06:04:48.569Z,100862.48
2018-12-01T06:07:15.084Z,100866.30
2018-12-01T06:09:42.468Z,100868.42
2018-12-01T06:12:08.972Z,100868.72
2018-12-01T06:14:35.409Z,100863.89
2018-12-01T06:17:01.969Z,100867.37
2018-12-01T06:19:28.475Z,100864.67
2018-12-01T06:21:54.945Z,100861.50
2018-12-01T06:24:21.440Z,100865.27
2018-12-01T06:26:47.901Z,100864.19
2018-12-01T06:29:14.413Z,100863.92
2018-12-01T06:31:40.973Z,100867.97
2018-12-01T06:34:07.481Z,100875.52
2018-12-01T06:36:33.945Z,100873.12
2018-12-01T06:39:00.441Z,100878.77
2018-12-01T06:41:26.898Z,100874.98
2018-12-01T06:43:53.417Z,100879.03
2018-12-01T06:46:19.976Z,100877.84
2018-12-01T06:48:46.477Z,100880.77
2018-12-01T06:51:12.961Z,100877.69
2018-12-01T06:53:39.452Z,100878.95
2018-12-01T06:56:05.889Z,100880.72
2018-12-01T06:58:32.432Z,100887.07
2018-12-01T07:00:58.984Z,100879.66
2018-12-01T07:03:25.509Z,100886.02
2018-12-01T07:05:52.020Z,100893.48
2018-12-01T07:08:18.501Z,100887.17
2018-12-01T07:10:44.993Z,100887.07
2018-12-01T07:13:11.693Z,100893.52
2018-12-01T07:15:38.927Z,100896.39
2018-12-01T07:18:17.029Z,100890.42
2018-12-01T07:20:43.525Z,100885.19
2018-12-01T07:23:10.077Z,100885.69
2018-12-01T07:25:36.589Z,100879.98
2018-12-01T07:28:03.089Z,100879.95
2018-12-01T07:30:29.553Z,100870.73
2018-12-01T07:32:56.025Z,100869.38
2018-12-01T07:35:22.525Z,100886.33
2018-12-01T07:37:49.009Z,100884.98
2018-12-01T07:40:16.461Z,100887.38
2018-12-01T07:42:42.993Z,100892.00
2018-12-01T07:45:10.781Z,100898.19
2018-12-01T07:47:37.253Z,100904.40
2018-12-01T07:50:06.713Z,100898.19
2018-12-01T07:52:33.180Z,100904.40
2018-12-01T07:54:59.641Z,100900.11
2018-12-01T07:57:26.157Z,100896.29
2018-12-01T07:59:52.600Z,100892.00
2018-12-01T08:02:19.127Z,100889.84
2018-12-01T08:04:45.668Z,100884.98
2018-12-01T08:07:12.184Z,100886.59
2018-12-01T08:09:38.681Z,100878.80
2018-12-01T08:12:05.189Z,100873.12
2018-12-01T08:14:31.741Z,100871.23
2018-12-01T08:16:58.228Z,100868.53
2018-12-01T08:19:24.698Z,100864.78
2018-12-01T08:21:51.214Z,100864.52
2018-12-01T08:24:17.737Z,100865.33
2018-12-01T08:26:44.288Z,100859.41
2018-12-01T08:29:10.796Z,100865.39
2018-12-01T08:31:37.265Z,100867.28
2018-12-01T08:34:03.917Z,100871.09
2018-12-01T08:36:30.425Z,100870.83
2018-12-01T08:38:56.958Z,100867.83
2018-12-01T08:41:23.505Z,100865.43
2018-12-01T08:43:50.009Z,100872.48
2018-12-01T08:46:16.476Z,100863.87
2018-12-01T08:48:42.977Z,100874.14
2018-12-01T08:51:09.441Z,100872.55
2018-12-01T08:53:35.941Z,100877.95
2018-12-01T08:56:02.454Z,100883.09
2018-12-01T08:58:28.950Z,100877.45
2018-12-01T09:00:55.492Z,100875.29
2018-12-01T09:05:48.345Z,100869.95
2018-12-01T09:08:14.861Z,100869.11
2018-12-01T09:10:41.414Z,100867.80
2018-12-01T09:13:07.951Z,100871.03
2018-12-01T09:15:36.854Z,100879.41
2018-12-01T09:18:01.112Z,100877.55
2018-12-01T09:20:27.629Z,100879.71
2018-12-01T09:22:54.089Z,100876.13
2018-12-01T09:26:24.144Z,100878.05
2018-12-01T09:28:50.629Z,100873.44
2018-12-01T09:31:17.153Z,100881.27
2018-12-01T09:33:43.625Z,100882.05
2018-12-01T09:36:10.129Z,100886.91
2018-12-01T09:38:36.681Z,100883.66
2018-12-01T09:41:03.221Z,100879.03
2018-12-01T09:43:29.741Z,100882.01
2018-12-01T09:45:56.261Z,100889.00
2018-12-01T09:48:22.721Z,100883.59
2018-12-01T09:50:49.225Z,100878.19
2018-12-01T09:53:15.785Z,100880.36
2018-12-01T09:55:42.301Z,100885.76
2018-12-01T09:58:08.756Z,100883.05
2018-12-01T10:00:35.303Z,100881.40
2018-12-01T10:03:03.590Z,100877.89
2018-12-01T10:05:30.689Z,100884.10
2018-12-01T10:07:57.157Z,100880.05
2018-12-01T10:10:23.701Z,100877.89
2018-12-01T10:12:54.805Z,100876.80
2018-12-01T10:15:23.818Z,100869.78
2018-12-01T10:17:49.193Z,100870.29
2018-12-01T10:20:19.184Z,100871.64
2018-12-01T10:22:45.685Z,100866.78
2018-12-01T10:25:13.496Z,100863.30
2018-12-01T10:27:39.969Z,100875.15
2018-12-01T10:30:09.517Z,100865.70
2018-12-01T10:32:35.993Z,100873.80
2018-12-01T10:35:02.895Z,100871.41
2018-12-01T10:37:29.369Z,100874.34
2018-12-01T10:39:55.849Z,100873.53
2018-12-01T10:42:22.344Z,100879.51
2018-12-01T10:44:48.881Z,100884.34
2018-12-01T10:47:15.405Z,100885.95
2018-12-01T10:49:41.881Z,100887.84
2018-12-01T10:52:08.369Z,100885.69
2018-12-01T10:54:34.865Z,100890.05
2018-12-01T10:57:01.352Z,100890.86
2018-12-01T10:59:27.881Z,100892.20
2018-12-01T11:01:54.429Z,100890.59
2018-12-01T11:04:20.952Z,100898.69
2018-12-01T11:06:47.517Z,100892.51
2018-12-01T11:09:14.013Z,100885.19
2018-12-01T11:11:40.489Z,100888.70
2018-12-01T11:14:07.010Z,100884.10
2018-12-01T11:16:33.569Z,100875.19
2018-12-01T11:19:00.097Z,100873.30
2018-12-01T11:21:26.624Z,100870.59
2018-12-01T11:23:53.314Z,100862.49
2018-12-01T11:26:19.782Z,100851.92
2018-12-01T11:28:46.316Z,100853.77
2018-12-01T11:31:12.865Z,100857.59
2018-12-01T11:33:39.385Z,100853.54
2018-12-01T11:36:05.925Z,100847.09
2018-12-01T11:38:32.789Z,100840.57
2018-12-01T11:40:59.321Z,100844.32
2018-12-01T11:43:25.833Z,100837.33
2018-12-01T11:45:52.395Z,100834.36
2018-12-01T11:48:18.890Z,100827.88
2018-12-01T11:50:45.505Z,100834.06
2018-12-01T11:53:11.970Z,100827.30
2018-12-01T11:55:38.550Z,100830.58
2018-12-01T11:58:05.048Z,100839.46
2018-12-01T12:00:31.558Z,100844.32
2018-12-01T12:02:58.145Z,100838.68
2018-12-01T12:05:24.665Z,100829.77
2018-12-01T12:08:02.708Z,100831.12
2018-12-01T12:10:29.321Z,100828.95
2018-12-01T12:12:55.845Z,100822.47
2018-12-01T12:15:22.996Z,100817.61
2018-12-01T12:17:52.220Z,100820.86
2018-12-01T12:20:18.693Z,100814.91
2018-12-01T12:22:45.271Z,100819.20
2018-12-01T12:25:11.753Z,100817.07
2018-12-01T12:27:38.325Z,100808.46
2018-12-01T12:30:13.668Z,100813.56
2018-12-01T12:32:40.333Z,100814.91
2018-12-01T12:35:08.007Z,100818.42
2018-12-01T12:37:34.489Z,100815.72
2018-12-01T12:40:01.001Z,100818.42
2018-12-01T12:42:27.469Z,100819.77
2018-12-01T12:44:53.965Z,100814.91
2018-12-01T12:47:20.425Z,100816.50
2018-12-01T12:49:46.957Z,100810.86
2018-12-01T12:52:13.481Z,100807.34
2018-12-01T12:54:40.007Z,100807.61
2018-12-01T12:57:06.560Z,100807.34
2018-12-01T12:59:33.081Z,100804.11
2018-12-01T13:01:59.629Z,100810.05
2018-12-01T13:04:26.149Z,100801.94
2018-12-01T13:06:52.701Z,100803.56
2018-12-01T13:09:19.216Z,100806.27
2018-12-01T13:11:45.685Z,100809.27
2018-12-01T13:14:12.168Z,100806.00
2018-12-01T13:16:38.637Z,100802.52
2018-12-01T13:19:05.187Z,100803.36
2018-12-01T13:21:31.701Z,100801.44
2018-12-01T13:23:58.249Z,100806.84
2018-12-01T13:26:24.776Z,100804.71
2018-12-01T13:28:51.321Z,100809.55
2018-12-01T13:31:17.844Z,100806.61
2018-12-01T13:33:44.649Z,100811.47
2018-12-01T13:36:11.109Z,100804.45
2018-12-01T13:38:37.666Z,100804.20
2018-12-01T13:41:04.321Z,100806.06
2018-12-01T13:43:30.829Z,100809.07
2018-12-01T13:45:57.341Z,100811.77
2018-12-01T13:48:23.837Z,100812.24
2018-12-01T13:50:50.312Z,100816.06
2018-12-01T13:53:16.881Z,100816.06
2018-12-01T13:55:43.442Z,100813.13
2018-12-01T13:58:09.949Z,100816.60
2018-12-01T14:00:36.946Z,100818.77
2018-12-01T14:03:03.780Z,100814.47
2018-12-01T14:05:30.240Z,100821.47
2018-12-01T14:07:56.790Z,100817.41
2018-12-01T14:10:24.403Z,100819.07
2018-12-01T14:12:53.281Z,100817.17
2018-12-01T14:15:20.842Z,100830.69
2018-12-01T14:17:47.613Z,100829.06
2018-12-01T14:20:14.711Z,100826.36
2018-12-01T14:22:41.793Z,100818.26
2018-12-01T14:25:09.329Z,100813.97
2018-12-01T14:27:36.081Z,100816.91
2018-12-01T14:30:04.561Z,100819.07
2018-12-01T14:32:31.036Z,100812.86
2018-12-01T14:34:57.613Z,100813.13
2018-12-01T14:37:24.097Z,100803.16
2018-12-01T14:39:50.556Z,100800.70
2018-12-01T14:42:17.081Z,100802.86
2018-12-01T14:44:43.629Z,100797.15
2018-12-01T14:47:10.133Z,100793.71
2018-12-01T14:49:36.591Z,100796.65
2018-12-01T14:52:03.125Z,100792.59
2018-12-01T14:54:29.665Z,100785.84
2018-12-01T14:56:56.173Z,100784.49
2018-12-01T14:59:22.649Z,100792.05
2018-12-01T15:01:49.145Z,100782.91
2018-12-01T15:04:15.709Z,100782.36
2018-12-01T15:06:42.209Z,100778.62
2018-12-01T15:09:08.686Z,100780.44
2018-12-01T15:11:35.461Z,100778.86
2018-12-01T15:14:01.955Z,100782.91
2018-12-01T15:16:28.448Z,100780.20
2018-12-01T15:18:54.885Z,100780.20
2018-12-01T15:21:21.349Z,100772.34
2018-12-01T15:23:47.853Z,100774.50
2018-12-01T15:26:14.321Z,100774.80
2018-12-01T15:28:40.825Z,100769.16
2018-12-01T15:31:07.393Z,100758.63
2018-12-01T15:33:33.905Z,100759.71
2018-12-01T15:36:00.487Z,100754.58
2018-12-01T15:38:26.973Z,100760.55
2018-12-01T15:40:53.533Z,100755.94
2018-12-01T15:43:20.043Z,100754.05
2018-12-01T15:45:46.593Z,100747.29
2018-12-01T15:48:13.125Z,100740.23
2018-12-01T15:50:39.917Z,100739.19
2018-12-01T15:53:09.207Z,100731.63
2018-12-01T15:55:35.705Z,100727.57
2018-12-01T16:00:28.277Z,100722.74
2018-12-01T16:02:54.788Z,100713.29
2018-12-01T16:05:22.704Z,100716.49
2018-12-01T16:10:17.821Z,100720.55
2018-12-01T16:12:45.556Z,100717.84
2018-12-01T16:15:21.236Z,100717.84
2018-12-01T16:20:14.020Z,100714.87
2018-12-01T16:22:40.521Z,100711.09
2018-12-01T16:27:33.949Z,100711.36
2018-12-01T16:32:26.521Z,100709.47
2018-12-01T16:34:53.033Z,100697.08
2018-12-01T16:39:45.493Z,100694.62
2018-12-01T16:42:12.060Z,100692.45
2018-12-01T16:44:38.574Z,100697.59
2018-12-01T16:47:05.282Z,100699.17
2018-12-01T16:51:57.809Z,100694.58
2018-12-01T16:54:24.445Z,100685.16
2018-12-01T16:56:50.957Z,100688.13
2018-12-01T16:59:17.464Z,100684.08
2018-12-01T17:01:44.021Z,100677.60
2018-12-01T17:04:10.565Z,100675.98
2018-12-01T17:06:37.089Z,100677.33
2018-12-01T17:09:05.608Z,100669.22
2018-12-01T17:11:32.130Z,100671.66
2018-12-01T17:13:58.637Z,100667.37
2018-12-01T17:16:25.204Z,100674.63
2018-12-01T17:18:51.718Z,100678.67
2018-12-01T17:21:18.263Z,100675.98
2018-12-01T17:23:44.755Z,100666.80
2018-12-01T17:26:11.319Z,100669.22
2018-12-01T17:28:37.829Z,100670.00
2018-12-01T17:33:31.025Z,100665.95
2018-12-01T17:35:57.552Z,100667.30
2018-12-01T17:38:24.130Z,100671.34
2018-12-01T17:41:00.216Z,100671.34
2018-12-01T17:43:30.725Z,100663.52
2018-12-01T17:45:57.189Z,100653.25
2018-12-01T17:48:23.678Z,100648.97
2018-12-01T17:50:50.200Z,100647.61
2018-12-01T17:53:16.729Z,100650.31
2018-12-01T17:55:43.217Z,100642.21
2018-12-01T17:58:09.829Z,100641.64
2018-12-01T18:03:02.477Z,100637.59
2018-12-01T18:05:34.850Z,100627.36
2018-12-01T18:08:01.595Z,100621.45
2018-12-01T18:10:28.087Z,100623.30
2018-12-01T18:12:54.529Z,100621.38
2018-12-01T18:15:21.042Z,100620.60
2018-12-01T18:17:47.609Z,100614.13
2018-12-01T18:20:14.504Z,100616.05
2018-12-01T18:22:41.125Z,100618.75
2018-12-01T18:27:34.049Z,100617.91
2018-12-01T18:30:00.610Z,100610.89
2018-12-01T18:32:27.119Z,100612.78
2018-12-01T18:37:19.689Z,100622.23
2018-12-01T18:39:46.181Z,100624.39
2018-12-01T18:42:12.642Z,100623.59
2018-12-01T18:44:39.157Z,100622.80
2018-12-01T18:47:05.705Z,100616.83
2018-12-01T18:49:32.253Z,100625.51
2018-12-01T18:51:58.748Z,100620.11
2018-12-01T18:54:25.320Z,100618.48
2018-12-01T18:56:51.825Z,100618.75
2018-12-01T18:59:18.292Z,100618.75
2018-12-01T19:01:46.477Z,100615.02
2018-12-01T19:04:12.984Z,100610.96
2018-12-01T19:06:39.500Z,100615.79
2018-12-01T19:09:06.594Z,100611.51
2018-12-01T19:11:33.080Z,100604.21
2018-12-01T19:13:59.561Z,100608.27
2018-12-01T19:16:26.057Z,100604.98
2018-12-01T19:18:52.609Z,100607.45
2018-12-01T19:21:19.122Z,100606.11
2018-12-01T19:23:45.577Z,100606.11
2018-12-01T19:26:12.085Z,100603.64
2018-12-01T19:28:38.554Z,100603.17
2018-12-01T19:31:05.199Z,100604.21
2018-12-01T19:33:31.717Z,100596.34
2018-12-01T19:35:58.225Z,100593.95
2018-12-01T19:38:25.861Z,100600.39
2018-12-01T19:40:52.805Z,100579.09
2018-12-01T19:43:19.301Z,100583.14
2018-12-01T19:45:45.805Z,100576.89
2018-12-01T19:48:12.333Z,100570.99
2018-12-01T19:50:39.665Z,100565.05
2018-12-01T19:53:09.441Z,100566.09
2018-12-01T19:55:35.994Z,100555.02
2018-12-01T19:58:07.941Z,100544.79
2018-12-01T20:00:34.458Z,100543.98
2018-12-01T20:03:02.241Z,100542.09
2018-12-01T20:05:28.901Z,100544.79
2018-12-01T20:07:55.369Z,100541.78
2018-12-01T20:10:28.729Z,100536.92
2018-12-01T20:12:56.986Z,100530.17
2018-12-01T20:17:50.304Z,100524.22
2018-12-01T20:20:16.777Z,100519.36
2018-12-01T20:22:43.278Z,100515.86
2018-12-01T20:25:11.116Z,100504.28
2018-12-01T20:27:37.579Z,100500.14
2018-12-01T20:30:21.249Z,100486.41
2018-12-01T20:32:47.849Z,100470.20
2018-12-01T20:35:23.794Z,100466.93
2018-12-01T20:37:57.657Z,100458.05
2018-12-01T20:40:24.177Z,100457.25
2018-12-01T20:42:50.689Z,100453.74
2018-12-01T20:45:17.265Z,100449.38
2018-12-01T20:47:43.765Z,100441.84
2018-12-01T20:50:12.707Z,100444.55
2018-12-01T20:52:39.181Z,100447.25
2018-12-01T20:57:42.012Z,100446.13
2018-12-01T21:00:10.112Z,100440.98
2018-12-01T21:02:36.612Z,100438.52
2018-12-01T21:05:06.045Z,100431.77
2018-12-01T21:07:32.526Z,100430.10
2018-12-01T21:09:59.085Z,100421.19
2018-12-01T21:12:25.589Z,100419.06
2018-12-01T21:14:52.049Z,100418.48
2018-12-01T21:17:18.557Z,100422.31
2018-12-01T21:19:45.123Z,100416.05
2018-12-01T21:22:11.630Z,100415.56
2018-12-01T21:24:38.163Z,100419.61
2018-12-01T21:27:04.750Z,100417.14
2018-12-01T21:29:31.274Z,100423.89
2018-12-01T21:31:57.805Z,100413.09
2018-12-01T21:34:24.309Z,100402.06
2018-12-01T21:36:50.892Z,100398.55
2018-12-01T21:39:17.373Z,100392.66
2018-12-01T21:41:43.954Z,100393.95
2018-12-01T21:44:10.442Z,100388.32
2018-12-01T21:46:36.905Z,100382.92
2018-12-01T21:49:03.655Z,100390.53
2018-12-01T21:51:30.185Z,100388.61
2018-12-01T21:53:56.693Z,100390.27
2018-12-01T21:56:23.245Z,100382.17
2018-12-01T21:58:49.768Z,100387.02
2018-12-01T22:01:16.313Z,100387.83
2018-12-01T22:03:42.838Z,100384.09
2018-12-01T22:06:09.389Z,100377.89
2018-12-01T22:08:36.569Z,100369.55
2018-12-01T22:11:03.136Z,100375.19
2018-12-01T22:13:29.609Z,100363.66
2018-12-01T22:15:56.144Z,100354.44
2018-12-01T22:18:23.206Z,100352.06
2018-12-01T22:20:49.725Z,100352.06
2018-12-01T22:23:16.237Z,100344.24
2018-12-01T22:25:42.793Z,100340.19
2018-12-01T22:28:10.593Z,100341.55
2018-12-01T22:30:37.093Z,100338.61
2018-12-01T22:33:05.812Z,100333.98
2018-12-01T22:35:32.310Z,100331.60
2018-12-01T22:37:58.837Z,100338.35
2018-12-01T22:47:16.525Z,100323.09
2018-12-01T22:49:43.042Z,100326.34
2018-12-01T22:52:09.583Z,100318.23
2018-12-01T22:54:36.101Z,100316.44
2018-12-01T22:57:02.669Z,100312.38
2018-12-01T22:59:29.169Z,100313.25
2018-12-01T23:01:55.762Z,100308.65
2018-12-01T23:04:22.245Z,100308.39
2018-12-01T23:06:48.800Z,100311.66
2018-12-01T23:09:15.321Z,100306.81
2018-12-01T23:11:41.873Z,100298.45
2018-12-01T23:14:08.378Z,100296.55
2018-12-01T23:16:34.837Z,100292.28
2018-12-01T23:19:01.345Z,100290.35
2018-12-01T23:21:27.841Z,100294.72
2018-12-01T23:23:54.321Z,100287.20
2018-12-01T23:26:20.864Z,100281.80
2018-12-01T23:28:47.417Z,100279.09
2018-12-01T23:31:13.945Z,100278.83
2018-12-01T23:33:40.465Z,100268.61
2018-12-01T23:36:06.997Z,100264.30
2018-12-01T23:38:33.545Z,100262.18
2018-12-01T23:41:00.065Z,100253.50
2018-12-01T23:43:26.624Z,100252.16
2018-12-01T23:45:53.141Z,100242.22
2018-12-01T23:48:19.705Z,100239.23
2018-12-01T23:50:50.229Z,100231.42
2018-12-01T23:53:17.013Z,100219.27
2018-12-01T23:55:43.469Z,100221.74
2018-12-01T23:58:10.017Z,100206.35
